SBPV/PVH METAR and TAF weather

Enter ICAO airport designator
Station Type Date Time Source
SBPV METAR 2019/06/17 13:00 UTC NOAA

SBPV 171300Z 16004KT CAVOK 27/25 Q1016


Station Type Date Time Source
SBPV Decoded METAR 2019/06/17 13:00 UTC NOAA

Porto Velho Aeroporto , Brazil (SBPV) 08-46S 063-55W 102M
Jun 17, 2019 - 09:00 AM EDT / 2019.06.17 1300 UTC
Wind: from the SSE (160 degrees) at 5 MPH (4 KT):0
Visibility: greater than 7 mile(s):0
Temperature: 80 F (27 C)
Dew Point: 77 F (25 C)
Relative Humidity: 88%
Pressure (altimeter): 30.00 in. Hg (1016 hPa)
ob: SBPV 171300Z 16004KT CAVOK 27/25 Q1016
cycle: 13

Station Type Date Time Source
SBPV TAF 2019/06/17 12:12 UTC NOAA

TAF TAF SBPV 170900Z 1712/1812 15005KT CAVOK TX33/1718Z TN24/1808Z
BECMG 1714/1716 09005KT FEW035
BECMG 1718/1720 06005KT SHRA SCT040 FEW045TCU
BECMG 1722/1724 12005KT NSW FEW035
BECMG 1802/1804 00000KT CAVOK
BECMG 1806/1808 18005KT PROB30 1809/1811 23003KT 4000 BR NSC
RMK PGY

Example: see airport list